Marceline, Missouri
Current Conditions -  °F | °C
As of 11:06 AM on Thursday 18 Dec 2014 (Local Time) from KIRK Reporting Station
Overcast Overcast  
Wind Chill: 20°   Ceiling: 4000
Heat Index: 27°   Visibility: 7mi
Dew Point: 25°   Wind: 6mph
Humidity: 92%   Direction: 100°E
Pressure: 30.28"   Gusts: NA
Location:  39.71°N, 92.95°W
Report Text: KIRK 181706Z AUTO 10005KT 7SM SCT008 OVC040 M03/M04 A3028 RMK AO2 T10281039
Loading
Personal Weather Stations






























Interactive Weather Map New forecast layout! Learn more

10-Day Weather Forecast

Advertisements
Track Severe Weather on mobile